Capitol Logistics 213


KRFD
Chicago/Rockford International Airport
Rockford, Illinois, US
KPVD
Theodore Francis Green State Airport
Providence, Rhode Island, US

Route Details

Aircraft Information
Primary: Boeing 767-300BDSF
Backup: Not Available
Route Data
Distance: 790nm
Sched. Duration: 1h 30m
Avg. Duration: 2h 11m (+82m)
Times Flown: 8
Recm'd Route: QUOTE JOT J146 GIJ J554 JHW TRAAD HNK WIPOR3
Planned Altitude: 35,000ft
Origin Wx: KRFD 280054Z 35005KT 10SM CLR M08/M14 A3049 RMK AO2 SLP341 T10831144
Dest. Wx: KPVD 280051Z 33004KT 10SM FEW020 OVC039 02/M01 A3004 RMK AO2 SLP171 T00171011
Notes:

Financial History
Total Freight: 476,050lbs
Average Load: 59,506lbs/flt
Fuel Used: 133,710lbs
Avg. Fuel Used: 16,714lbs/flt
Fuel Expense: $96,007
Avg. Fuel Expense: $12,001
Avg. Fuel Cost: $0.71/lbs
Total Gross Income: $621,375
Pilot Pay: $1,382
Total Expenses: $67,524
Total Revenue: $454,012
Average Revenue: $77,671.87